Time;durP1;ratioP1;P1;durP2;ratioP2;P2;SDS_P1;SDS_P2;PMS_P1;PMS_P2;Temp;Humidity;BMP_temperature;BMP_pressure;BME280_temperature;BME280_humidity;BME280_pressure;Samples;Min_cycle;Max_cycle;Signal;HPM_P1;HPM_P2
2021/10/13 00:00:14;;;;;;;9.40;1.90;;;;;;;8.47;100.00;102477.66;4955062;28;20082;-70
2021/10/13 00:02:42;;;;;;;4.05;1.60;;;;;;;8.44;100.00;102476.75;4949961;28;20058;-70
2021/10/13 00:05:11;;;;;;;6.57;1.60;;;;;;;8.35;100.00;102475.81;4947271;28;20224;-70
2021/10/13 00:07:41;;;;;;;8.05;1.65;;;;;;;8.27;100.00;102466.91;4952495;28;20074;-70
2021/10/13 00:10:09;;;;;;;7.07;1.95;;;;;;;8.21;100.00;102470.44;4949884;28;20059;-70
2021/10/13 00:12:37;;;;;;;2.88;1.42;;;;;;;8.16;100.00;102463.34;4949228;28;20141;-70
2021/10/13 00:15:08;;;;;;;3.67;1.40;;;;;;;8.10;100.00;102463.31;4949547;28;20499;-70
2021/10/13 00:17:36;;;;;;;5.18;1.70;;;;;;;8.02;100.00;102455.31;4952117;28;20150;-70
2021/10/13 00:20:04;;;;;;;5.28;2.05;;;;;;;7.96;100.00;102448.19;4952031;28;20364;-71
2021/10/13 00:22:32;;;;;;;5.47;1.58;;;;;;;7.86;100.00;102452.56;4943532;28;20133;-71
2021/10/13 00:25:01;;;;;;;8.73;2.10;;;;;;;7.79;100.00;102458.72;4950913;28;20142;-71
2021/10/13 00:27:29;;;;;;;4.40;1.70;;;;;;;7.73;100.00;102457.81;4944282;28;20834;-69
2021/10/13 00:29:57;;;;;;;3.92;1.70;;;;;;;7.66;100.00;102467.50;4951239;28;20047;-70
2021/10/13 00:32:25;;;;;;;5.03;1.80;;;;;;;7.65;100.00;102461.31;4951352;28;20157;-70
2021/10/13 00:34:53;;;;;;;4.25;2.03;;;;;;;7.62;100.00;102461.28;4951104;28;20051;-70
2021/10/13 00:37:21;;;;;;;5.93;1.80;;;;;;;7.62;100.00;102463.06;4954782;28;20051;-70
2021/10/13 00:39:49;;;;;;;6.38;1.90;;;;;;;7.62;100.00;102477.22;4947252;28;20058;-70
2021/10/13 00:42:18;;;;;;;4.85;1.80;;;;;;;7.62;100.00;102473.69;4951630;28;20050;-74
2021/10/13 00:44:46;;;;;;;6.25;2.47;;;;;;;7.70;100.00;102479.94;4948153;28;21660;-74
2021/10/13 00:47:14;;;;;;;4.43;1.90;;;;;;;7.70;100.00;102482.59;4949493;28;20142;-76
2021/10/13 00:49:43;;;;;;;8.13;2.20;;;;;;;7.71;100.00;102488.78;4949338;28;20063;-76
2021/10/13 00:52:13;;;;;;;3.95;1.77;;;;;;;7.74;100.00;102491.47;4951140;28;20051;-74
2021/10/13 00:54:44;;;;;;;3.20;2.00;;;;;;;7.78;100.00;102493.25;4952874;28;20062;-74
2021/10/13 00:57:12;;;;;;;4.38;2.10;;;;;;;7.82;100.00;102493.28;4948114;28;20054;-74
2021/10/13 00:59:42;;;;;;;7.85;2.15;;;;;;;7.84;100.00;102488.00;4950218;28;20583;-75
2021/10/13 01:02:14;;;;;;;5.20;2.53;;;;;;;7.88;100.00;102500.41;4949577;28;20071;-75
2021/10/13 01:04:58;;;;;;;7.00;2.10;;;;;;;7.90;100.00;102498.66;4948837;28;20062;-75
2021/10/13 01:07:32;;;;;;;;;;;;;;;7.90;100.00;102488.03;4946933;28;20073;-75
2021/10/13 01:10:06;;;;;;;8.80;2.00;;;;;;;7.93;100.00;102500.44;4952390;28;19929;-75
2021/10/13 01:12:52;;;;;;;8.93;2.78;;;;;;;7.94;100.00;102489.81;4948497;28;20062;-75
2021/10/13 01:15:27;;;;;;;7.95;2.70;;;;;;;7.95;100.00;102488.94;4950163;28;20234;-74
2021/10/13 01:18:03;;;;;;;4.45;2.78;;;;;;;8.00;100.00;102496.94;4956242;28;20059;-75
2021/10/13 01:20:47;;;;;;;13.90;2.88;;;;;;;8.05;100.00;102479.22;4950047;28;20051;-74
2021/10/13 01:24:00;;;;;;;6.28;2.25;;;;;;;8.09;100.00;102472.16;4950968;28;20142;-74
2021/10/13 01:26:34;;;;;;;5.13;1.92;;;;;;;8.08;100.00;102470.38;4914206;28;20055;-74
2021/10/13 01:29:10;;;;;;;7.18;2.15;;;;;;;8.03;100.00;102460.59;4954315;28;20043;-69
2021/10/13 01:31:43;;;;;;;10.77;2.20;;;;;;;8.03;100.00;102465.03;4947172;28;20535;-69
2021/10/13 01:34:15;;;;;;;7.40;1.73;;;;;;;7.99;100.00;102473.91;4954682;28;20065;-74
2021/10/13 01:36:47;;;;;;;7.03;2.90;;;;;;;7.95;100.00;102483.63;4949015;28;20046;-74
2021/10/13 01:39:15;;;;;;;4.43;1.77;;;;;;;7.91;100.00;102476.50;4950780;28;20051;-69
2021/10/13 01:41:46;;;;;;;8.02;2.33;;;;;;;7.90;100.00;102471.19;4949792;28;20078;-69
2021/10/13 01:44:19;;;;;;;5.38;2.00;;;;;;;7.94;100.00;102468.56;4951587;28;20078;-69
2021/10/13 01:46:47;;;;;;;11.63;2.97;;;;;;;7.94;100.00;102475.66;4951221;28;20055;-69
2021/10/13 01:49:16;;;;;;;6.88;2.33;;;;;;;7.94;100.00;102499.56;4946784;28;20178;-69
2021/10/13 01:51:48;;;;;;;9.45;2.55;;;;;;;7.94;100.00;102503.09;4950780;28;20125;-68
2021/10/13 01:54:17;;;;;;;5.18;2.30;;;;;;;7.95;100.00;102499.59;4943708;28;20074;-69
2021/10/13 01:56:45;;;;;;;8.98;2.55;;;;;;;8.01;100.00;102496.94;4951327;28;20094;-68
2021/10/13 01:59:20;;;;;;;7.55;2.53;;;;;;;8.07;100.00;102498.75;4946578;28;20414;-73
2021/10/13 02:01:50;;;;;;;6.75;2.20;;;;;;;8.12;100.00;102485.47;4951177;28;20055;-73
2021/10/13 02:04:20;;;;;;;3.65;1.88;;;;;;;8.18;100.00;102489.03;4946854;28;20062;-75
2021/10/13 02:06:50;;;;;;;4.72;1.83;;;;;;;8.27;100.00;102489.97;4948178;28;20046;-73
2021/10/13 02:09:24;;;;;;;9.32;2.50;;;;;;;8.31;100.00;102495.31;4951401;28;20263;-73
2021/10/13 02:11:54;;;;;;;4.78;2.03;;;;;;;8.31;100.00;102486.41;4943984;28;20766;-76
2021/10/13 02:14:26;;;;;;;8.32;2.15;;;;;;;8.31;100.00;102483.75;4952410;28;20046;-69
2021/10/13 02:16:57;;;;;;;8.90;2.00;;;;;;;8.32;100.00;102491.75;4946723;28;20202;-71
2021/10/13 02:19:27;;;;;;;4.60;2.35;;;;;;;8.35;100.00;102496.19;4948394;28;20054;-75
2021/10/13 02:21:57;;;;;;;10.93;2.08;;;;;;;8.33;100.00;102497.97;4946649;28;20074;-75
2021/10/13 02:24:27;;;;;;;4.57;1.83;;;;;;;8.32;100.00;102497.06;4951544;28;20077;-75
2021/10/13 02:27:02;;;;;;;4.55;1.70;;;;;;;8.31;100.00;102507.69;4952320;28;20515;-75
2021/10/13 02:29:31;;;;;;;5.15;1.95;;;;;;;8.26;100.00;102512.09;4947474;28;20057;-75
2021/10/13 02:31:59;;;;;;;8.75;2.22;;;;;;;8.26;100.00;102501.47;4949537;28;20058;-75
2021/10/13 02:34:27;;;;;;;5.10;1.90;;;;;;;8.20;100.00;102507.66;4946679;28;20054;-75
2021/10/13 02:36:54;;;;;;;3.33;1.52;;;;;;;8.18;100.00;102506.78;4947873;28;20058;-75
2021/10/13 02:39:22;;;;;;;5.97;1.85;;;;;;;8.16;100.00;102516.53;4951296;28;20160;-74
2021/10/13 02:41:50;;;;;;;6.28;2.10;;;;;;;8.16;100.00;102525.38;4949723;28;20487;-75
2021/10/13 02:44:18;;;;;;;6.15;1.90;;;;;;;8.20;100.00;102527.16;4950486;28;20050;-75
2021/10/13 02:46:50;;;;;;;6.05;2.00;;;;;;;8.21;100.00;102522.75;4946166;28;20128;-74
2021/10/13 02:49:26;;;;;;;4.22;1.70;;;;;;;8.26;100.00;102536.03;4949705;28;20147;-74
2021/10/13 02:52:06;;;;;;;7.45;2.22;;;;;;;8.25;100.00;102524.53;4946595;28;20109;-74
2021/10/13 02:54:39;;;;;;;10.00;1.80;;;;;;;8.24;100.00;102522.75;4947699;28;20673;-74
2021/10/13 02:57:09;;;;;;;7.10;1.90;;;;;;;8.18;100.00;102523.59;4948507;28;20058;-74
2021/10/13 02:59:41;;;;;;;5.05;2.17;;;;;;;8.10;100.00;102520.00;4948218;28;20047;-74
2021/10/13 03:02:14;;;;;;;3.57;1.80;;;;;;;8.04;100.00;102514.69;4947327;28;20520;-75
2021/10/13 03:05:00;;;;;;;7.00;2.00;;;;;;;7.96;100.00;102514.63;4950884;28;20063;-74
2021/10/13 03:07:32;;;;;;;5.30;1.58;;;;;;;7.90;100.00;102514.63;4949148;28;20110;-74
2021/10/13 03:10:04;;;;;;;6.07;1.77;;;;;;;7.84;100.00;102520.75;4946557;28;20581;-74
2021/10/13 03:12:39;;;;;;;3.95;1.70;;;;;;;7.79;100.00;102521.63;4946465;28;20096;-74
2021/10/13 03:15:09;;;;;;;5.35;1.80;;;;;;;7.72;100.00;102527.78;4944260;28;20358;-74
2021/10/13 03:17:41;;;;;;;6.85;2.30;;;;;;;7.67;100.00;102525.97;4949811;28;20086;-74
2021/10/13 03:20:12;;;;;;;6.53;1.80;;;;;;;7.64;100.00;102539.25;4949319;28;20102;-74
2021/10/13 03:22:41;;;;;;;4.00;1.60;;;;;;;7.59;100.00;102540.06;4950428;28;20113;-74
2021/10/13 03:25:34;;;;;;;4.43;1.92;;;;;;;7.57;100.00;102544.50;4947666;28;20355;-74
2021/10/13 03:28:04;;;;;;;7.85;1.80;;;;;;;7.59;100.00;102550.72;4948416;28;20044;-74
2021/10/13 03:30:56;;;;;;;5.28;1.70;;;;;;;7.56;100.00;102542.72;4949080;28;20187;-73
2021/10/13 03:33:26;;;;;;;4.43;1.90;;;;;;;7.55;100.00;102549.78;4949521;28;20108;-74
2021/10/13 03:35:56;;;;;;;7.70;2.08;;;;;;;7.56;100.00;102545.38;4947297;28;20059;-74
2021/10/13 03:38:24;;;;;;;5.32;1.70;;;;;;;7.55;100.00;102551.56;4949400;28;20569;-73
2021/10/13 03:40:53;;;;;;;5.78;2.55;;;;;;;7.57;100.00;102549.81;4952158;28;20053;-74
2021/10/13 03:43:23;;;;;;;5.72;2.00;;;;;;;7.60;100.00;102553.38;4950853;28;20305;-74
2021/10/13 03:45:52;;;;;;;6.38;2.30;;;;;;;7.67;100.00;102563.16;4952851;28;20098;-73
2021/10/13 03:48:20;;;;;;;4.30;1.80;;;;;;;7.66;100.00;102561.41;4950178;28;20157;-72
2021/10/13 03:50:49;;;;;;;4.25;2.10;;;;;;;7.67;100.00;102564.94;4954158;28;20051;-74
2021/10/13 03:53:17;;;;;;;5.22;2.10;;;;;;;7.67;100.00;102555.19;4947897;28;20051;-73
2021/10/13 03:56:08;;;;;;;7.88;2.15;;;;;;;7.72;100.00;102565.00;4950553;28;20109;-72
2021/10/13 03:59:01;;;;;;;4.78;2.05;;;;;;;7.73;100.00;102557.03;4952681;28;20222;-72
2021/10/13 04:01:32;;;;;;;7.93;2.53;;;;;;;7.76;100.00;102554.38;4949013;28;21915;-74
2021/10/13 04:04:00;;;;;;;6.72;2.72;;;;;;;7.78;100.00;102544.66;4952832;28;20062;-74
2021/10/13 04:06:30;;;;;;;7.75;2.50;;;;;;;7.79;100.00;102535.78;4949773;28;20090;-73
2021/10/13 04:08:57;;;;;;;5.75;2.55;;;;;;;7.80;100.00;102534.94;4952854;28;20397;-73
2021/10/13 04:11:25;;;;;;;6.13;2.10;;;;;;;7.81;100.00;102531.38;4948803;28;20559;-73
2021/10/13 04:13:53;;;;;;;7.45;2.17;;;;;;;7.82;100.00;102538.47;4954003;28;20467;-73
2021/10/13 04:16:21;;;;;;;5.60;2.55;;;;;;;7.83;100.00;102539.34;4951382;28;20350;-72
2021/10/13 04:18:49;;;;;;;5.43;1.90;;;;;;;7.83;100.00;102536.69;4948970;28;20091;-72
2021/10/13 04:21:17;;;;;;;5.32;2.08;;;;;;;7.82;100.00;102537.59;4952400;28;20416;-72
2021/10/13 04:23:46;;;;;;;7.57;2.00;;;;;;;7.82;100.00;102538.47;4951733;28;20050;-72
2021/10/13 04:26:14;;;;;;;8.20;2.50;;;;;;;7.78;100.00;102544.66;4951108;28;20158;-72
2021/10/13 04:28:42;;;;;;;6.80;2.25;;;;;;;7.76;100.00;102545.50;4953476;28;20483;-72
2021/10/13 04:31:11;;;;;;;6.88;2.20;;;;;;;7.72;100.00;102549.91;4952309;28;20514;-72
2021/10/13 04:34:03;;;;;;;4.53;2.10;;;;;;;7.66;100.00;102548.13;4953426;28;20181;-72
2021/10/13 04:36:33;;;;;;;6.80;2.72;;;;;;;7.62;100.00;102548.97;4953263;28;20145;-68
2021/10/13 04:39:05;;;;;;;8.93;2.85;;;;;;;7.56;100.00;102540.06;4951721;28;20053;-71
2021/10/13 04:41:33;;;;;;;4.97;2.38;;;;;;;7.48;100.00;102543.53;4949822;28;20090;-68
2021/10/13 04:44:25;;;;;;;6.95;2.83;;;;;;;7.44;100.00;102547.06;4952572;28;20054;-68
2021/10/13 04:46:53;;;;;;;6.38;2.80;;;;;;;7.39;100.00;102550.53;4947912;28;20597;-72
2021/10/13 04:49:21;;;;;;;10.10;2.78;;;;;;;7.37;100.00;102552.28;4951392;28;20058;-73
2021/10/13 04:51:48;;;;;;;7.40;2.55;;;;;;;7.32;100.00;102556.69;4948215;28;20366;-72
2021/10/13 04:54:19;;;;;;;7.18;3.13;;;;;;;7.29;100.00;102557.56;4945283;28;20047;-72
2021/10/13 04:56:47;;;;;;;8.25;2.92;;;;;;;7.24;100.00;102549.53;4951016;28;20062;-72
2021/10/13 04:59:15;;;;;;;7.53;2.72;;;;;;;7.17;100.00;102542.41;4948529;28;20051;-68
2021/10/13 05:01:43;;;;;;;8.57;3.00;;;;;;;7.14;100.00;102552.13;4953215;28;20119;-68
2021/10/13 05:04:16;;;;;;;5.88;2.35;;;;;;;7.07;100.00;102552.03;4949742;28;20047;-68
2021/10/13 05:06:44;;;;;;;5.90;2.67;;;;;;;7.04;100.00;102556.44;4948109;28;20138;-69
2021/10/13 05:09:12;;;;;;;8.60;3.10;;;;;;;7.02;100.00;102550.22;4948374;28;20303;-68
2021/10/13 05:12:06;;;;;;;7.85;2.65;;;;;;;7.02;100.00;102555.53;4946531;28;20058;-73
2021/10/13 05:14:35;;;;;;;4.75;2.42;;;;;;;7.01;100.00;102553.75;4948503;28;20353;-73
2021/10/13 05:17:03;;;;;;;5.85;2.45;;;;;;;7.04;100.00;102559.97;4948195;28;20074;-73
2021/10/13 05:19:31;;;;;;;8.98;3.65;;;;;;;7.09;100.00;102566.22;4951524;28;20133;-71
2021/10/13 05:21:59;;;;;;;5.57;2.80;;;;;;;7.08;100.00;102567.09;4946460;28;20192;-73
2021/10/13 05:24:27;;;;;;;8.20;2.85;;;;;;;7.16;100.00;102560.97;4949592;28;20058;-72
2021/10/13 05:26:56;;;;;;;4.85;2.53;;;;;;;7.24;100.00;102551.31;4947125;28;20059;-72
2021/10/13 05:29:25;;;;;;;7.30;3.05;;;;;;;7.24;100.00;102564.59;4950165;28;20562;-73
2021/10/13 05:31:54;;;;;;;7.00;3.13;;;;;;;7.24;100.00;102564.59;4950564;28;20039;-69
2021/10/13 05:34:22;;;;;;;11.48;3.25;;;;;;;7.31;100.00;102573.50;4953172;28;20057;-68
2021/10/13 05:36:50;;;;;;;9.95;2.95;;;;;;;7.36;100.00;102574.44;4950148;28;20534;-70
2021/10/13 05:39:17;;;;;;;5.40;2.85;;;;;;;7.42;100.00;102570.06;4947349;28;20545;-69
2021/10/13 05:41:45;;;;;;;6.78;2.85;;;;;;;7.43;100.00;102571.84;4950508;28;20931;-68
2021/10/13 05:44:14;;;;;;;10.00;5.30;;;;;;;7.46;100.00;102579.84;4942676;28;20043;-68
2021/10/13 05:46:44;;;;;;;6.38;2.83;;;;;;;7.47;100.00;102571.00;4949037;28;20661;-67
2021/10/13 05:49:12;;;;;;;8.75;3.08;;;;;;;7.54;100.00;102576.34;4946458;28;20047;-67
2021/10/13 05:52:06;;;;;;;9.43;3.10;;;;;;;7.58;100.00;102580.81;4947884;28;20053;-67
2021/10/13 05:54:34;;;;;;;9.27;4.00;;;;;;;7.60;100.00;102579.94;4948021;28;20038;-69
2021/10/13 05:57:01;;;;;;;10.50;3.83;;;;;;;7.64;100.00;102581.78;4946030;28;20210;-67
2021/10/13 05:59:29;;;;;;;9.13;3.88;;;;;;;7.69;100.00;102591.53;4946483;28;20159;-71
2021/10/13 06:01:59;;;;;;;11.48;3.90;;;;;;;7.70;100.00;102582.69;4944177;28;20136;-69
2021/10/13 06:04:27;;;;;;;11.75;4.53;;;;;;;7.75;100.00;102589.81;4947102;28;20070;-68
2021/10/13 06:06:55;;;;;;;9.95;4.55;;;;;;;7.75;100.00;102587.16;4947524;28;20117;-68
2021/10/13 06:09:23;;;;;;;12.52;5.07;;;;;;;7.77;100.00;102597.81;4951355;28;20062;-68
2021/10/13 06:11:51;;;;;;;14.38;4.97;;;;;;;7.81;100.00;102594.28;4947823;28;20084;-68
2021/10/13 06:14:18;;;;;;;15.27;5.30;;;;;;;7.86;100.00;102597.84;4947843;28;20055;-72
2021/10/13 06:16:46;;;;;;;15.80;4.97;;;;;;;7.86;100.00;102598.72;4951360;28;20109;-68
2021/10/13 06:19:15;;;;;;;12.50;5.10;;;;;;;7.89;100.00;102597.88;4948622;28;20093;-68
2021/10/13 06:21:43;;;;;;;14.77;5.38;;;;;;;7.92;100.00;102611.19;4949968;28;20078;-69
2021/10/13 06:24:12;;;;;;;17.27;6.22;;;;;;;7.96;100.00;102609.44;4948101;28;20265;-70
2021/10/13 06:26:40;;;;;;;15.98;6.10;;;;;;;7.94;100.00;102598.81;4951861;28;20051;-74
2021/10/13 06:29:09;;;;;;;12.30;6.35;;;;;;;7.99;100.00;102612.13;4954137;28;20105;-73
2021/10/13 06:31:37;;;;;;;15.50;6.93;;;;;;;8.00;100.00;102612.16;4949612;28;20071;-72
2021/10/13 06:34:06;;;;;;;16.52;6.72;;;;;;;8.01;100.00;102608.59;4949947;28;20050;-72
2021/10/13 06:36:36;;;;;;;12.00;5.65;;;;;;;8.00;100.00;102608.56;4947312;28;20066;-72
2021/10/13 06:39:04;;;;;;;15.88;6.68;;;;;;;8.02;100.00;102617.47;4945895;28;20054;-74
2021/10/13 06:41:32;;;;;;;16.63;6.40;;;;;;;8.02;100.00;102629.00;4948025;28;20133;-73
2021/10/13 06:43:59;;;;;;;15.55;7.30;;;;;;;8.04;100.00;102631.66;4950707;28;20527;-69
2021/10/13 06:46:27;;;;;;;14.90;7.53;;;;;;;8.05;100.00;102628.09;4949265;28;20062;-69
2021/10/13 06:48:55;;;;;;;17.27;6.97;;;;;;;8.11;100.00;102621.97;4947289;28;20047;-69
2021/10/13 06:51:23;;;;;;;14.88;6.55;;;;;;;8.13;100.00;102623.75;4948840;28;20059;-69
2021/10/13 06:53:53;;;;;;;17.00;6.93;;;;;;;8.15;100.00;102627.28;4942874;28;20051;-69
2021/10/13 06:56:21;;;;;;;15.30;6.50;;;;;;;8.19;100.00;102629.09;4948899;28;20477;-70
2021/10/13 06:58:50;;;;;;;18.80;7.95;;;;;;;8.25;100.00;102633.56;4948826;28;20051;-69
2021/10/13 07:01:18;;;;;;;14.27;7.22;;;;;;;8.29;100.00;102632.72;4951770;28;20054;-69
2021/10/13 07:03:47;;;;;;;16.60;6.95;;;;;;;8.35;100.00;102630.06;4951604;28;20074;-70
2021/10/13 07:06:14;;;;;;;14.85;6.78;;;;;;;8.46;100.00;102637.25;4948089;28;20335;-74
2021/10/13 07:08:43;;;;;;;19.48;8.05;;;;;;;8.53;100.00;102639.06;4949763;28;20055;-74
2021/10/13 07:11:12;;;;;;;19.83;8.27;;;;;;;8.63;100.00;102632.91;4946337;28;20046;-74
2021/10/13 07:13:40;;;;;;;18.52;8.32;;;;;;;8.75;100.00;102638.31;4946994;28;20098;-72
2021/10/13 07:16:08;;;;;;;18.80;7.55;;;;;;;8.87;100.00;102633.88;4951674;28;20542;-72
2021/10/13 07:18:36;;;;;;;15.40;6.10;;;;;;;9.02;100.00;102635.72;4954669;28;20106;-73
2021/10/13 07:21:04;;;;;;;17.30;7.35;;;;;;;9.12;100.00;102635.75;4955533;28;20133;-72
2021/10/13 07:23:32;;;;;;;12.30;6.20;;;;;;;9.21;100.00;102632.25;4950739;28;20109;-74
2021/10/13 07:26:00;;;;;;;13.80;5.60;;;;;;;9.28;100.00;102633.13;4954821;28;20157;-72
2021/10/13 07:28:30;;;;;;;20.77;5.70;;;;;;;9.31;100.00;102635.78;4950609;28;20088;-73
2021/10/13 07:30:59;;;;;;;17.80;5.97;;;;;;;9.36;100.00;102642.00;4954902;28;20055;-72
2021/10/13 07:33:30;;;;;;;13.07;4.85;;;;;;;9.43;100.00;102638.50;4953742;28;20510;-73
2021/10/13 07:35:57;;;;;;;12.57;5.60;;;;;;;9.49;100.00;102641.16;4954511;28;21374;-72
2021/10/13 07:38:26;;;;;;;10.70;5.45;;;;;;;9.52;100.00;102643.81;4956005;28;20057;-72
2021/10/13 07:40:54;;;;;;;10.80;5.15;;;;;;;9.56;100.00;102639.38;4949737;28;20047;-72
2021/10/13 07:43:22;;;;;;;13.13;4.60;;;;;;;9.60;100.00;102634.94;4952619;28;20082;-71
2021/10/13 07:45:51;;;;;;;11.75;4.70;;;;;;;9.62;100.00;102642.06;4949577;28;20431;-73
2021/10/13 07:48:19;;;;;;;12.07;3.80;;;;;;;9.68;100.00;102639.38;4950544;28;20403;-67
2021/10/13 07:50:48;;;;;;;9.48;3.47;;;;;;;9.77;100.00;102640.28;4952773;28;20050;-67
2021/10/13 07:53:15;;;;;;;9.05;3.58;;;;;;;9.84;100.00;102632.28;4949992;28;20054;-69
2021/10/13 07:56:07;;;;;;;8.52;3.38;;;;;;;9.97;100.00;102641.16;4954672;28;20058;-69
2021/10/13 07:58:59;;;;;;;7.38;3.70;;;;;;;10.10;100.00;102634.91;4952712;28;20345;-68
2021/10/13 08:01:29;;;;;;;9.38;3.60;;;;;;;10.19;100.00;102639.34;4957386;28;20610;-69
2021/10/13 08:03:57;;;;;;;14.13;4.18;;;;;;;10.28;100.00;102644.69;4945588;28;20102;-69
2021/10/13 08:06:25;;;;;;;8.20;3.20;;;;;;;10.44;100.00;102637.53;4953569;28;20756;-68
2021/10/13 08:08:52;;;;;;;13.20;3.60;;;;;;;10.57;100.00;102641.09;4949175;28;20743;-69
2021/10/13 08:11:20;;;;;;;6.70;3.33;;;;;;;10.74;100.00;102640.97;4948990;28;21635;-69
2021/10/13 08:13:48;;;;;;;7.30;2.85;;;;;;;10.79;100.00;102639.19;4948473;28;20047;-69
2021/10/13 08:16:16;;;;;;;7.72;3.22;;;;;;;10.84;100.00;102647.19;4949164;28;20061;-68
2021/10/13 08:18:46;;;;;;;7.13;2.70;;;;;;;10.88;100.00;102640.03;4949917;28;20443;-72
2021/10/13 08:21:13;;;;;;;7.13;2.67;;;;;;;10.98;100.00;102648.03;4946625;28;20133;-71
2021/10/13 08:23:41;;;;;;;7.32;2.50;;;;;;;11.11;100.00;102651.50;4951455;28;20161;-71
2021/10/13 08:26:09;;;;;;;8.00;2.97;;;;;;;11.17;100.00;102655.94;4945332;28;20156;-70
2021/10/13 08:28:37;;;;;;;7.03;3.10;;;;;;;11.29;100.00;102653.19;4948363;28;20142;-71
2021/10/13 08:31:05;;;;;;;5.90;2.67;;;;;;;11.30;100.00;102656.75;4950465;28;20145;-71
2021/10/13 08:33:58;;;;;;;6.28;2.47;;;;;;;11.23;100.00;102663.03;4947546;28;20093;-71
2021/10/13 08:36:26;;;;;;;6.00;2.17;;;;;;;11.23;100.00;102665.69;4949555;28;20127;-72
2021/10/13 08:38:55;;;;;;;8.77;3.50;;;;;;;11.31;100.00;102670.09;4950408;28;20145;-71
2021/10/13 08:41:23;;;;;;;6.65;2.60;;;;;;;11.36;100.00;102670.97;4948896;28;20290;-71
2021/10/13 08:43:51;;;;;;;12.00;2.60;;;;;;;11.40;100.00;102669.16;4948034;28;20061;-70
2021/10/13 08:46:22;;;;;;;5.38;2.05;;;;;;;11.47;100.00;102668.19;4951366;28;20145;-72
2021/10/13 08:48:50;;;;;;;6.05;2.05;;;;;;;11.52;97.76;102668.19;4946735;28;20134;-70
2021/10/13 08:51:23;;;;;;;4.30;2.10;;;;;;;11.59;98.80;102669.91;4947825;28;20062;-70
2021/10/13 08:53:51;;;;;;;9.85;2.50;;;;;;;11.65;97.48;102667.19;4943050;28;20077;-70
2021/10/13 08:56:19;;;;;;;4.88;2.08;;;;;;;11.71;97.99;102675.19;4949857;28;20065;-70
2021/10/13 08:58:47;;;;;;;4.47;1.73;;;;;;;11.72;96.26;102676.94;4950814;28;20054;-71
2021/10/13 09:01:15;;;;;;;7.90;2.28;;;;;;;11.73;96.40;102684.09;4945062;28;20082;-71
2021/10/13 09:04:07;;;;;;;3.55;1.42;;;;;;;11.80;97.71;102678.66;4951636;28;20057;-71
2021/10/13 09:06:37;;;;;;;5.07;1.65;;;;;;;11.88;95.97;102688.41;4947958;28;20391;-72
2021/10/13 09:09:06;;;;;;;5.03;1.70;;;;;;;12.11;96.85;102687.38;4953554;28;20142;-71
2021/10/13 09:11:58;;;;;;;5.35;2.75;;;;;;;12.41;96.55;102696.91;4945075;28;20050;-71
2021/10/13 09:14:28;;;;;;;6.43;1.85;;;;;;;12.30;94.62;102690.75;4948076;28;20043;-71
2021/10/13 09:16:59;;;;;;;5.47;1.73;;;;;;;12.14;93.93;102688.22;4950864;28;20207;-71
2021/10/13 09:19:29;;;;;;;6.13;1.90;;;;;;;12.14;92.70;102695.38;4952971;28;20106;-70
2021/10/13 09:22:00;;;;;;;6.15;1.75;;;;;;;12.23;95.05;102689.03;4950574;28;20138;-71
2021/10/13 09:24:32;;;;;;;6.85;2.10;;;;;;;12.25;92.74;102695.25;4947152;28;20055;-72
2021/10/13 09:27:18;;;;;;;4.05;1.65;;;;;;;12.18;91.15;102696.22;4951923;28;20050;-71
2021/10/13 09:29:47;;;;;;;5.68;2.13;;;;;;;12.14;90.28;102685.56;4949934;28;20508;-72
2021/10/13 09:32:15;;;;;;;6.45;2.35;;;;;;;12.10;89.07;102688.25;4951266;28;20522;-73
2021/10/13 09:34:46;;;;;;;4.18;1.60;;;;;;;12.20;89.36;102692.63;4949472;28;20054;-71
2021/10/13 09:37:16;;;;;;;4.88;1.70;;;;;;;12.21;88.79;102689.06;4949724;28;20057;-72
2021/10/13 09:39:55;;;;;;;3.88;1.67;;;;;;;12.31;89.73;102693.41;4948544;28;20157;-71
2021/10/13 09:42:24;;;;;;;7.85;1.90;;;;;;;12.47;89.24;102690.59;4950466;28;20047;-73
2021/10/13 09:44:55;;;;;;;6.47;1.88;;;;;;;12.68;90.18;102700.16;4952985;28;20055;-72
2021/10/13 09:47:30;;;;;;;4.85;1.60;;;;;;;12.80;87.82;102696.44;4949318;28;20093;-72
2021/10/13 09:49:58;;;;;;;5.05;1.65;;;;;;;13.29;89.26;102695.81;4952970;28;20511;-72
2021/10/13 09:52:29;;;;;;;6.45;1.40;;;;;;;13.09;86.84;102704.13;4943613;28;20728;-72
2021/10/13 09:54:59;;;;;;;3.80;1.70;;;;;;;13.42;87.40;102710.00;4950716;28;20042;-72
2021/10/13 09:57:31;;;;;;;3.78;1.52;;;;;;;13.47;87.26;102712.59;4952053;28;21156;-72
2021/10/13 10:00:08;;;;;;;7.85;1.40;;;;;;;12.74;83.05;102713.50;4951675;28;20073;-72
2021/10/13 10:03:04;;;;;;;4.40;1.55;;;;;;;12.85;86.16;102716.03;4951394;28;20234;-72
2021/10/13 10:05:34;;;;;;;6.22;1.60;;;;;;;12.87;85.54;102708.88;4951707;28;21178;-72
2021/10/13 10:08:28;;;;;;;4.57;1.40;;;;;;;12.77;85.65;102710.78;4953056;28;20058;-72
2021/10/13 10:11:05;;;;;;;10.02;1.77;;;;;;;12.75;85.87;102711.69;4946312;28;20114;-73
2021/10/13 10:13:35;;;;;;;3.75;1.45;;;;;;;12.65;83.59;102714.50;4948654;28;20475;-72
2021/10/13 10:16:03;;;;;;;2.15;1.23;;;;;;;12.66;85.42;102712.69;4945257;28;20381;-72
2021/10/13 10:18:34;;;;;;;5.95;1.58;;;;;;;12.60;84.71;102721.69;4948549;28;20388;-72
2021/10/13 10:21:20;;;;;;;3.55;1.58;;;;;;;12.60;84.45;102718.09;4946642;28;20046;-74
2021/10/13 10:23:51;;;;;;;4.95;1.60;;;;;;;12.60;85.63;102726.13;4948954;28;20821;-68
2021/10/13 10:26:34;;;;;;;3.00;1.20;;;;;;;12.76;82.78;102717.03;4944616;28;20138;-68
2021/10/13 10:29:38;;;;;;;3.45;1.20;;;;;;;13.78;84.05;102713.03;4948334;28;20125;-71
2021/10/13 10:32:16;;;;;;;6.45;1.33;;;;;;;13.95;79.32;102710.06;4949224;28;20835;-71
2021/10/13 10:35:12;;;;;;;5.35;1.55;;;;;;;14.65;81.74;102697.19;4948397;28;20716;-68
2021/10/13 10:37:42;;;;;;;3.63;1.38;;;;;;;14.46;75.32;102702.00;4944565;28;20832;-68
2021/10/13 10:40:14;;;;;;;3.72;1.40;;;;;;;14.69;73.81;102698.91;4949932;28;20085;-68
2021/10/13 10:42:57;;;;;;;2.95;1.10;;;;;;;15.19;74.01;102700.56;4948811;28;20095;-69
2021/10/13 10:45:28;;;;;;;1.95;1.13;;;;;;;14.64;70.75;102710.66;4943986;28;20454;-69
2021/10/13 10:48:08;;;;;;;5.18;1.35;;;;;;;14.25;68.37;102711.34;4948258;28;20047;-69
2021/10/13 10:50:42;;;;;;;3.22;1.27;;;;;;;13.94;67.76;102717.22;4940658;28;20117;-68
2021/10/13 10:53:36;;;;;;;5.03;1.60;;;;;;;14.18;69.51;102713.25;4941342;28;20839;-69
2021/10/13 10:56:27;;;;;;;4.80;1.30;;;;;;;14.36;69.83;102713.84;4943693;28;20054;-69
2021/10/13 10:59:05;;;;;;;5.10;1.40;;;;;;;14.11;69.48;102711.56;4948691;28;20055;-69
2021/10/13 11:01:33;;;;;;;3.80;1.35;;;;;;;13.77;70.14;102709.47;4947584;28;20919;-69
2021/10/13 11:04:15;;;;;;;5.40;1.58;;;;;;;13.86;70.52;102711.09;4945379;28;20368;-69
2021/10/13 11:06:56;;;;;;;3.83;1.38;;;;;;;13.49;67.99;102714.34;4945156;28;20343;-69
2021/10/13 11:09:24;;;;;;;3.42;1.30;;;;;;;13.57;69.53;102715.13;4945780;28;20146;-70
2021/10/13 11:11:54;;;;;;;2.28;1.40;;;;;;;13.53;69.05;102710.69;4950348;28;20138;-69
2021/10/13 11:14:25;;;;;;;4.38;1.55;;;;;;;13.55;68.16;102714.28;4945072;28;20137;-69
2021/10/13 11:16:59;;;;;;;5.60;1.40;;;;;;;13.58;70.13;102708.84;4947265;28;20062;-69
2021/10/13 11:19:30;;;;;;;6.75;1.55;;;;;;;13.96;69.43;102717.19;4943366;28;20487;-69
2021/10/13 11:22:04;;;;;;;4.10;1.35;;;;;;;13.81;67.66;102718.34;4948337;28;20109;-69
2021/10/13 11:24:33;;;;;;;6.10;1.55;;;;;;;13.69;65.75;102721.19;4944341;28;20051;-68
2021/10/13 11:27:03;;;;;;;5.13;1.35;;;;;;;13.67;67.54;102728.38;4948151;28;20141;-74
2021/10/13 11:29:33;;;;;;;5.15;1.45;;;;;;;13.51;67.45;102723.25;4947962;28;20047;-69
2021/10/13 11:32:06;;;;;;;3.90;1.45;;;;;;;13.55;69.18;102730.38;4951020;28;20138;-71
2021/10/13 11:34:34;;;;;;;4.22;1.40;;;;;;;13.61;67.64;102730.25;4950610;28;20964;-71
2021/10/13 11:37:03;;;;;;;2.05;1.27;;;;;;;13.93;67.60;102722.63;4947681;28;20069;-73
2021/10/13 11:39:33;;;;;;;4.35;1.48;;;;;;;14.59;65.27;102721.47;4949104;28;20054;-72
2021/10/13 11:42:03;;;;;;;4.90;1.63;;;;;;;14.49;64.30;102723.44;4946248;28;20141;-68
2021/10/13 11:44:34;;;;;;;3.90;1.80;;;;;;;14.47;64.43;102729.72;4950461;28;20737;-69